Tropical Cyclones
[Index]
Main Index Home Page Stock Weather Photos Extreme Storms Discussion Storm News and Storm Chasing Reports Tropical Cyclones / Hurricanes / Typhoons Weather Data and Links Wild Fires / Bushfires Weather Observation Techniques Weather Picture Catalogue Tornado Pictures and Reports Stock Video Footage and DVDs for sale
Season 1989-1990 Tropical Cyclone ROSITA Track Map
Season 1989-1990 Summaries: [BoM-AU] [JTWC-AU] [JTWC-SIO] [JTWC-SPAC] [JTWC-SH]
<<- Previous TC | BoM 1989-1990 Season | Next TC ->>

click for intensity scale information  Lat/long Grid: Show Hide

 Date Labels: Show Hide

Bureau of Meteorology Tropical Cyclone Data

Name: ROSITA
Number: 722 / 198990_03

04 Jan 1990 18:00 UTC to 17 Jan 1990 12:00 UTC

    date/time    lat    long    hPa   cat  kts
1990-01-04 18   12.7   111.7   1004         25          
1990-01-05 00   12.8   110.6   1004         25          
1990-01-05 06   12.9   109.8   1002         27          
1990-01-05 12   13.0   108.5   1001         29          
1990-01-05 18   13.2   107.0   1001         29          
1990-01-06 00   13.4   105.7   1000         31          
1990-01-06 06   13.8   104.4    998         35          
1990-01-06 12   14.0   104.2   1000         31          
1990-01-06 18   14.3   103.8   1000         31          
1990-01-07 00   14.6   103.6   1000         31          
1990-01-07 06   15.0   103.4   1000         31          
1990-01-07 12   15.2   103.6   1001         29          
1990-01-07 18   15.2   103.8   1001         29          
1990-01-08 00   15.1   104.2   1002         27          
1990-01-08 06   14.9   104.3   1002         27          
1990-01-08 12   14.4   104.3   1002         27          
1990-01-08 18   14.0   104.2   1002         27          
1990-01-09 00   13.5   104.1   1003         27          
1990-01-09 06   13.2   103.8   1004         25          
1990-01-09 12   12.3   103.2   1004         25          
1990-01-09 18   11.6   102.6   1003         27          
1990-01-10 00   10.8   102.0   1002         27          
1990-01-10 06   10.0   101.3   1000         31          
1990-01-10 12    9.8   100.4   1000         31          
1990-01-10 18   10.0   100.2   1000         31          
1990-01-11 00   10.3   100.1   1000         31          
1990-01-11 06   10.5   100.1   1000         31          
1990-01-11 12   10.8   100.1   1000         31          
1990-01-11 18   11.0   100.3   1000         31          
1990-01-12 00   11.1   100.6   1000         31          
1990-01-12 06   11.3   101.1    998         35          
1990-01-12 12   11.8   101.4    998         35          
1990-01-12 18   12.3   101.7    997         35          
1990-01-13 00   12.9   101.9    995    1    39          
1990-01-13 06   13.4   102.1    992    1    43          
1990-01-13 12   13.9   102.2    990    1    47          
1990-01-13 18   14.4   102.3    988    1    49          
1990-01-14 00   14.9   102.5    988    1    49          
1990-01-14 06   15.4   102.6    990    1    47          
1990-01-14 12   15.8   102.6    990    1    47          
1990-01-14 18   16.4   102.6    994    1    41          
1990-01-15 00   16.6   102.1    996         37          
1990-01-15 06   16.3   101.6    997         35          
1990-01-15 12   16.0   101.1    998         35          
1990-01-15 18   15.6   100.5    999         33          
1990-01-16 00   15.2   100.0   1000         31          
1990-01-16 06   14.4    99.6   1000         31          
1990-01-16 12   13.8    99.2   1000         31          
1990-01-16 18   13.2    98.8   1000         31          
1990-01-17 00   12.6    98.6   1000         31          
1990-01-17 06   12.0    98.3   1001         29          
1990-01-17 12   11.2    98.1   1002         27          
Winds are 10-min average.

Tropical cyclone tracks developed by Michael Bath using data from the Bureau of Meteorology and Google Maps.


[Australian Severe Weather index] [Copyright Notice] [Email Contacts] [Search This Site] [Privacy Policy]
Document: tropical_cyclone_rosita.htm Updated: 30 May 2013